Time;durP1;ratioP1;P1;durP2;ratioP2;P2;SDS_P1;SDS_P2;PMS_P1;PMS_P2;Temp;Humidity;BMP_temperature;BMP_pressure;BME280_temperature;BME280_humidity;BME280_pressure;Samples;Min_cycle;Max_cycle;Signal;HPM_P1;HPM_P2
2022/10/22 00:01:15;;;;;;;5.65;3.80;;;;;;;15.11;60.88;102467.72;5009082;28;20033;-90
2022/10/22 00:03:43;;;;;;;4.13;3.35;;;;;;;15.16;60.53;102467.19;5003871;28;20026;-92
2022/10/22 00:06:11;;;;;;;4.70;3.42;;;;;;;15.16;60.71;102463.66;5005986;28;20030;-91
2022/10/22 00:09:01;;;;;;;4.32;3.42;;;;;;;15.20;60.37;102457.78;5004061;28;20139;-91
2022/10/22 00:11:26;;;;;;;4.47;3.17;;;;;;;15.13;60.59;102459.09;5011412;28;20022;-90
2022/10/22 00:14:03;;;;;;;4.97;3.10;;;;;;;15.18;60.38;102457.69;5011922;28;20057;-91
2022/10/22 00:16:28;;;;;;;;;;;;;;;15.13;60.58;102458.19;5014633;28;20045;-92
2022/10/22 00:22:16;;;;;;;4.07;3.13;;;;;;;15.14;60.62;102450.41;5021684;28;20121;-92
2022/10/22 00:24:41;;;;;;;5.53;3.10;;;;;;;15.14;60.63;102447.78;5020952;28;20475;-92
2022/10/22 00:27:14;;;;;;;3.88;3.05;;;;;;;15.12;60.50;102444.13;5014960;28;20038;-92
2022/10/22 00:29:42;;;;;;;3.95;3.20;;;;;;;15.11;60.68;102442.28;5010471;28;20498;-89
2022/10/22 00:32:23;;;;;;;4.50;3.00;;;;;;;15.03;60.50;102426.06;5028980;28;20034;-90
2022/10/22 00:34:53;;;;;;;3.55;3.00;;;;;;;15.13;60.32;102438.03;5011445;28;20057;-88
2022/10/22 00:37:23;;;;;;;4.75;3.20;;;;;;;14.99;60.84;102433.66;5006514;28;20117;-91
2022/10/22 00:39:48;;;;;;;4.78;3.28;;;;;;;15.04;60.61;102427.84;4999687;28;20021;-91
2022/10/22 00:42:29;;;;;;;3.30;2.95;;;;;;;15.07;60.41;102421.91;4997100;28;20046;-90
2022/10/22 00:48:22;;;;;;;3.78;2.78;;;;;;;14.96;60.61;102413.31;5010254;28;20559;-91
2022/10/22 00:50:48;;;;;;;6.07;2.78;;;;;;;15.18;60.17;102425.19;5014614;28;20060;-91
2022/10/22 00:53:36;;;;;;;5.82;3.17;;;;;;;15.06;60.49;102420.97;5031019;28;20061;-91
2022/10/22 00:56:04;;;;;;;5.70;3.00;;;;;;;15.03;60.34;102420.78;5019266;28;20037;-91
2022/10/22 00:58:33;;;;;;;3.15;2.85;;;;;;;15.00;60.44;102417.94;5017454;28;20092;-92
2022/10/22 01:01:02;;;;;;;4.47;3.20;;;;;;;15.05;60.56;102431.41;5005835;28;20551;-90
2022/10/22 01:03:35;;;;;;;3.00;2.58;;;;;;;15.04;60.29;102411.16;5022679;28;20074;-92
2022/10/22 01:06:20;;;;;;;4.82;3.17;;;;;;;15.05;60.29;102419.16;5009530;28;20430;-91
2022/10/22 01:09:25;;;;;;;3.25;2.90;;;;;;;15.05;60.30;102418.25;5009097;28;20029;-91
2022/10/22 01:12:15;;;;;;;3.28;2.65;;;;;;;15.01;60.52;102414.53;5013380;28;20100;-93
2022/10/22 01:15:02;;;;;;;3.35;2.60;;;;;;;15.04;60.36;102403.28;5018485;28;20099;-91
2022/10/22 01:17:58;;;;;;;4.82;3.58;;;;;;;15.03;60.45;102401.47;5014979;28;20463;-91
2022/10/22 01:21:03;;;;;;;4.07;2.90;;;;;;;15.03;60.32;102407.63;5013179;28;20069;-92
2022/10/22 01:23:54;;;;;;;4.88;2.90;;;;;;;15.01;60.33;102409.25;5010837;28;20033;-91
2022/10/22 01:26:23;;;;;;;3.97;2.42;;;;;;;15.05;60.05;102399.84;5011509;28;20488;-92
2022/10/22 01:28:53;;;;;;;5.00;2.92;;;;;;;15.02;60.26;102407.53;5014766;28;20030;-91
2022/10/22 01:31:28;;;;;;;3.72;3.10;;;;;;;15.02;60.25;102399.63;5015716;28;20041;-92
2022/10/22 01:33:54;;;;;;;5.28;3.08;;;;;;;14.95;60.47;102387.84;5015717;28;20022;-92
2022/10/22 01:36:22;;;;;;;4.13;2.65;;;;;;;14.90;60.60;102388.34;4996298;28;20042;-93
2022/10/22 01:38:56;;;;;;;4.22;2.78;;;;;;;15.05;60.27;102390.22;5000134;28;20145;-92
2022/10/22 01:41:29;;;;;;;3.45;2.90;;;;;;;14.88;60.41;102374.19;5010002;28;20034;-91
2022/10/22 01:43:54;;;;;;;3.83;3.30;;;;;;;14.96;60.45;102392.25;4996159;28;20026;-92
2022/10/22 01:46:26;;;;;;;4.03;3.03;;;;;;;14.98;60.34;102390.63;5006717;28;20030;-91
2022/10/22 01:48:54;;;;;;;3.90;2.90;;;;;;;14.99;60.28;102388.94;5012264;28;20498;-91
2022/10/22 01:52:02;;;;;;;3.72;2.85;;;;;;;14.98;60.39;102392.38;5023521;28;20028;-92
2022/10/22 01:54:37;;;;;;;3.97;2.70;;;;;;;15.00;60.12;102393.38;5012766;28;20538;-91
2022/10/22 01:57:27;;;;;;;3.45;2.67;;;;;;;14.96;60.32;102397.53;5028110;28;20476;-91
2022/10/22 02:00:00;;;;;;;3.72;2.92;;;;;;;14.94;60.47;102395.63;5015004;28;20518;-90
2022/10/22 02:02:54;;;;;;;4.55;2.72;;;;;;;14.99;60.26;102394.19;5008224;28;20529;-89
2022/10/22 02:05:34;;;;;;;3.30;2.63;;;;;;;14.71;60.26;102341.59;5014773;28;20037;-90
2022/10/22 02:08:24;;;;;;;3.90;2.65;;;;;;;14.98;60.22;102382.75;5006180;28;20037;-90
2022/10/22 02:10:52;;;;;;;3.47;2.67;;;;;;;14.79;60.35;102362.28;5018636;28;20025;-90
2022/10/22 02:13:35;;;;;;;4.68;2.80;;;;;;;14.95;60.04;102381.66;4993516;28;20046;-90
2022/10/22 02:16:14;;;;;;;4.57;2.60;;;;;;;14.81;60.23;102365.00;5014456;28;20034;-91
2022/10/22 02:18:49;;;;;;;3.25;2.60;;;;;;;14.92;60.25;102384.09;4992788;28;20029;-91
2022/10/22 02:21:31;;;;;;;5.95;2.70;;;;;;;14.88;60.16;102375.13;4998467;28;20034;-90
2022/10/22 02:24:12;;;;;;;2.70;2.38;;;;;;;14.82;60.27;102364.22;4996716;28;20080;-90
2022/10/22 02:30:10;;;;;;;3.15;2.35;;;;;;;14.87;60.28;102383.81;5012710;28;20165;-92
2022/10/22 02:32:41;;;;;;;3.55;2.55;;;;;;;14.85;60.22;102393.31;5013159;28;20026;-94
2022/10/22 02:35:09;;;;;;;3.65;2.70;;;;;;;14.79;59.99;102379.78;5011270;28;20029;-92
2022/10/22 02:37:35;;;;;;;4.22;2.63;;;;;;;14.72;59.68;102360.09;5013101;28;20037;-93
2022/10/22 02:40:05;;;;;;;4.20;2.65;;;;;;;14.89;59.54;102387.44;5015890;28;20034;-94
2022/10/22 02:42:39;;;;;;;5.22;2.67;;;;;;;14.97;59.26;102409.88;5012251;28;20029;-92
2022/10/22 02:45:09;;;;;;;3.70;2.63;;;;;;;14.77;59.35;102376.16;5005821;28;20038;-93
2022/10/22 02:47:38;;;;;;;2.67;2.47;;;;;;;14.88;59.48;102393.53;5001595;28;20046;-92
2022/10/22 02:50:14;;;;;;;4.43;2.67;;;;;;;14.82;60.16;102401.03;5009447;28;20050;-91
2022/10/22 02:52:45;;;;;;;4.85;2.67;;;;;;;14.84;60.23;102412.56;5021641;28;20026;-92
2022/10/22 02:55:25;;;;;;;4.43;2.63;;;;;;;14.85;59.84;102406.47;5024159;28;20048;-93
2022/10/22 02:58:02;;;;;;;3.38;2.25;;;;;;;14.85;60.05;102406.47;5013017;28;20117;-91
2022/10/22 03:00:29;;;;;;;;;;;;;;;14.85;60.04;102417.00;5007179;28;20709;-90
2022/10/22 03:03:01;;;;;;;4.78;2.70;;;;;;;14.80;59.63;102402.66;5010441;28;20011;-91
2022/10/22 03:05:27;;;;;;;2.92;2.60;;;;;;;14.89;59.64;102416.38;5017496;28;20049;-90
2022/10/22 03:07:57;;;;;;;4.40;2.88;;;;;;;14.81;59.78;102413.25;5011876;28;20018;-92
2022/10/22 03:10:29;;;;;;;3.03;2.40;;;;;;;14.79;59.76;102403.47;5010502;28;20179;-91
2022/10/22 03:12:55;;;;;;;4.55;2.50;;;;;;;14.73;59.79;102396.13;5009008;28;20046;-92
2022/10/22 03:15:24;;;;;;;3.55;2.28;;;;;;;14.82;59.75;102417.72;5005649;28;20034;-92
2022/10/22 03:17:50;;;;;;;3.05;2.35;;;;;;;14.78;59.88;102397.28;5007393;28;20076;-91
2022/10/22 03:20:18;;;;;;;3.83;2.72;;;;;;;14.69;59.64;102387.91;5015739;28;20030;-90
2022/10/22 03:22:49;;;;;;;2.65;2.28;;;;;;;14.74;59.48;102391.75;5041010;28;20129;-90
2022/10/22 03:25:26;;;;;;;2.60;2.25;;;;;;;14.72;59.70;102385.50;5002763;28;20033;-91
2022/10/22 03:28:02;;;;;;;3.85;2.70;;;;;;;14.70;59.95;102395.91;5007433;28;20026;-91
2022/10/22 03:30:30;;;;;;;3.90;2.47;;;;;;;14.70;59.78;102382.75;5009941;28;20033;-91
2022/10/22 03:32:56;;;;;;;5.00;2.60;;;;;;;14.67;59.94;102390.47;5011337;28;20025;-90
2022/10/22 03:35:51;;;;;;;3.13;2.40;;;;;;;14.75;59.58;102391.84;5006011;28;20483;-92
2022/10/22 03:38:19;;;;;;;4.07;2.40;;;;;;;14.69;59.75;102393.16;5009391;28;20125;-92
2022/10/22 03:40:47;;;;;;;2.88;2.55;;;;;;;14.68;59.49;102381.75;4993012;28;20041;-91
2022/10/22 03:43:36;;;;;;;3.95;2.42;;;;;;;14.72;59.63;102402.16;5001681;28;20029;-92
2022/10/22 03:46:04;;;;;;;3.25;2.60;;;;;;;14.72;59.16;102398.63;4991132;28;20030;-91
2022/10/22 03:48:30;;;;;;;3.60;2.40;;;;;;;14.62;59.58;102392.78;5004951;28;20026;-90
2022/10/22 03:50:59;;;;;;;2.85;2.55;;;;;;;14.64;59.74;102400.78;4991544;28;20499;-91
2022/10/22 03:53:27;;;;;;;3.20;2.40;;;;;;;14.69;59.35;102399.34;5008578;28;20044;-91
2022/10/22 03:55:53;;;;;;;5.22;3.03;;;;;;;14.59;59.42;102382.06;5011306;28;20673;-88
2022/10/22 03:58:27;;;;;;;3.13;2.40;;;;;;;14.71;59.63;102396.81;5010922;28;20109;-89
2022/10/22 04:00:52;;;;;;;3.75;2.70;;;;;;;14.61;59.75;102385.72;5008689;28;20034;-90
2022/10/22 04:03:25;;;;;;;4.38;2.60;;;;;;;14.65;59.54;102399.97;5011832;28;20015;-94
2022/10/22 04:09:20;;;;;;;6.22;2.30;;;;;;;14.59;59.78;102389.97;5009447;28;20029;-92
2022/10/22 04:11:55;;;;;;;4.53;2.70;;;;;;;14.53;59.37;102370.22;4998945;28;20030;-90
2022/10/22 04:14:23;;;;;;;3.00;2.70;;;;;;;14.54;59.61;102375.59;5014239;28;20095;-89
2022/10/22 04:16:53;;;;;;;3.13;2.60;;;;;;;14.59;59.74;102386.44;5009876;28;20502;-90
2022/10/22 04:19:21;;;;;;;3.05;2.47;;;;;;;14.50;59.55;102370.94;5011051;28;20399;-90
2022/10/22 04:21:47;;;;;;;4.28;2.58;;;;;;;14.43;59.52;102358.22;4994917;28;20029;-88
2022/10/22 04:24:13;;;;;;;4.35;2.50;;;;;;;14.39;59.50;102354.50;5013419;28;20030;-90
2022/10/22 04:26:39;;;;;;;3.42;2.50;;;;;;;14.43;59.40;102359.16;5014039;28;20097;-87
2022/10/22 04:29:06;;;;;;;5.28;2.83;;;;;;;14.60;59.12;102377.72;5032841;28;20509;-91
2022/10/22 04:31:32;;;;;;;4.25;2.70;;;;;;;14.51;59.36;102366.59;5014475;28;20022;-90
2022/10/22 04:33:58;;;;;;;3.90;2.70;;;;;;;14.57;59.69;102382.78;5006965;28;20034;-91
2022/10/22 04:36:26;;;;;;;3.53;2.65;;;;;;;14.56;59.58;102386.22;5021781;28;20026;-90
2022/10/22 04:38:58;;;;;;;3.53;2.75;;;;;;;14.54;59.29;102375.59;5016371;28;20128;-91
2022/10/22 04:41:38;;;;;;;3.65;2.55;;;;;;;14.56;59.33;102391.47;5005454;28;20025;-91
2022/10/22 04:44:11;;;;;;;3.80;2.65;;;;;;;14.46;59.17;102359.31;5006579;28;20034;-91
2022/10/22 04:46:37;;;;;;;3.67;2.65;;;;;;;14.54;59.13;102391.38;4992935;28;20030;-89
2022/10/22 04:49:03;;;;;;;3.13;2.55;;;;;;;14.54;59.33;102386.13;4992417;28;20518;-89
2022/10/22 04:51:31;;;;;;;5.05;2.95;;;;;;;14.55;59.25;102384.38;5008795;28;20537;-89
2022/10/22 04:53:58;;;;;;;2.90;2.63;;;;;;;14.40;59.22;102358.94;5014575;28;20030;-89
2022/10/22 04:56:26;;;;;;;3.65;2.70;;;;;;;14.38;59.35;102354.41;5015228;28;20049;-85
2022/10/22 04:59:01;;;;;;;3.33;2.50;;;;;;;14.56;59.09;102378.34;5039262;28;20046;-89
2022/10/22 05:01:35;;;;;;;4.30;2.90;;;;;;;14.35;59.34;102357.75;5003092;28;20025;-88
2022/10/22 05:04:03;;;;;;;4.03;3.00;;;;;;;14.53;59.37;102379.03;5010854;28;20379;-90
2022/10/22 05:06:30;;;;;;;2.80;2.30;;;;;;;14.49;59.24;102368.22;5009513;28;20041;-90
2022/10/22 05:09:02;;;;;;;3.25;2.60;;;;;;;14.28;59.60;102344.09;5006410;28;20036;-87
2022/10/22 05:11:32;;;;;;;3.63;3.05;;;;;;;14.49;59.11;102384.00;5006408;28;20049;-91
2022/10/22 05:13:59;;;;;;;4.70;2.72;;;;;;;14.48;59.21;102379.53;4992515;28;20116;-87
2022/10/22 05:16:27;;;;;;;4.55;2.90;;;;;;;14.46;59.25;102382.09;5004566;28;20033;-88
2022/10/22 05:18:52;;;;;;;5.45;3.22;;;;;;;14.46;59.43;102379.47;5010821;28;20026;-88
2022/10/22 05:21:20;;;;;;;4.25;3.40;;;;;;;14.45;59.49;102388.13;5010192;28;20040;-90
2022/10/22 05:23:47;;;;;;;5.55;3.00;;;;;;;14.52;59.32;102392.06;5000505;28;20077;-88
2022/10/22 05:26:15;;;;;;;5.00;3.30;;;;;;;14.34;59.21;102379.56;5015329;28;20088;-88
2022/10/22 05:28:41;;;;;;;5.55;2.72;;;;;;;14.47;59.18;102386.50;5011165;28;20030;-89
2022/10/22 05:31:10;;;;;;;4.47;3.38;;;;;;;14.50;59.18;102397.25;5015017;28;20065;-91
2022/10/22 05:33:37;;;;;;;3.88;3.00;;;;;;;14.40;59.33;102384.31;5015546;28;20033;-91
2022/10/22 05:36:08;;;;;;;4.70;2.97;;;;;;;14.43;59.29;102393.31;5014302;28;20026;-91
2022/10/22 05:38:38;;;;;;;5.10;3.10;;;;;;;14.39;59.10;102385.09;4997256;28;20017;-91
2022/10/22 05:41:13;;;;;;;6.63;3.95;;;;;;;14.20;59.37;102341.91;5016893;28;20026;-90
2022/10/22 05:43:45;;;;;;;4.25;3.38;;;;;;;14.35;59.50;102388.34;5004116;28;20403;-91
2022/10/22 05:46:13;;;;;;;4.75;3.60;;;;;;;13.84;59.51;102290.50;5018446;28;20120;-91
2022/10/22 05:48:50;;;;;;;5.45;3.67;;;;;;;14.33;59.29;102368.94;5012305;28;20519;-94
2022/10/22 05:51:16;;;;;;;6.38;3.47;;;;;;;14.45;59.23;102389.03;5035908;28;20060;-92
2022/10/22 05:53:42;;;;;;;4.05;3.20;;;;;;;14.29;59.49;102378.38;5012713;28;20037;-90
2022/10/22 05:56:15;;;;;;;5.07;3.30;;;;;;;14.22;59.28;102374.44;5015207;28;20033;-89
2022/10/22 05:58:57;;;;;;;4.93;3.25;;;;;;;14.14;59.55;102358.97;5014100;28;20037;-92
2022/10/22 06:01:30;;;;;;;4.95;3.28;;;;;;;14.37;59.31;102403.44;5018223;28;20028;-91
2022/10/22 06:04:08;;;;;;;8.95;3.90;;;;;;;14.10;59.62;102356.97;5023158;28;20029;-94
2022/10/22 06:06:41;;;;;;;4.43;3.10;;;;;;;13.93;59.55;102313.84;5017037;28;20033;-91
2022/10/22 06:09:21;;;;;;;4.88;3.58;;;;;;;14.23;59.73;102370.97;5022881;28;20057;-94
2022/10/22 06:11:49;;;;;;;4.95;3.38;;;;;;;14.31;59.70;102382.00;5005711;28;20017;-90
2022/10/22 06:14:24;;;;;;;4.80;3.50;;;;;;;14.38;59.57;102378.03;5003731;28;20046;-93
2022/10/22 06:16:58;;;;;;;5.57;3.55;;;;;;;14.33;59.74;102377.75;5013035;28;20036;-95
2022/10/22 06:19:50;;;;;;;5.07;3.47;;;;;;;14.39;59.78;102377.22;5022035;28;20123;-92
2022/10/22 06:22:29;;;;;;;3.63;3.10;;;;;;;14.34;59.73;102365.53;5010564;28;20031;-94
2022/10/22 06:25:01;;;;;;;6.07;3.72;;;;;;;14.35;59.87;102375.22;5013965;28;20076;-92
2022/10/22 06:27:38;;;;;;;4.70;3.35;;;;;;;14.31;60.05;102384.63;5012175;28;20375;-93
2022/10/22 06:30:05;;;;;;;5.18;3.30;;;;;;;14.32;59.83;102388.16;5008429;28;20487;-94
2022/10/22 06:32:31;;;;;;;6.32;3.03;;;;;;;14.39;59.81;102386.03;5015438;28;20029;-94
2022/10/22 06:35:02;;;;;;;4.90;3.10;;;;;;;14.29;59.88;102374.81;5010070;28;20033;-94
2022/10/22 06:37:46;;;;;;;4.45;3.15;;;;;;;14.33;59.69;102379.44;5014794;28;20501;-90
2022/10/22 06:40:12;;;;;;;4.57;3.15;;;;;;;14.44;59.48;102386.34;5023402;28;20487;-90
2022/10/22 06:42:38;;;;;;;7.35;3.55;;;;;;;14.35;59.72;102376.13;5025231;28;20068;-88
2022/10/22 06:45:21;;;;;;;4.82;3.45;;;;;;;14.16;60.07;102352.09;5021825;28;20037;-91
2022/10/22 06:47:56;;;;;;;5.28;3.55;;;;;;;14.21;60.09;102356.84;4991714;28;20109;-92
2022/10/22 06:50:27;;;;;;;6.20;3.30;;;;;;;14.40;59.77;102377.34;4989986;28;20029;-92
2022/10/22 06:52:53;;;;;;;5.32;3.30;;;;;;;14.28;59.77;102360.75;5009592;28;20040;-92
2022/10/22 06:55:36;;;;;;;7.55;3.88;;;;;;;14.36;59.96;102377.03;5019070;28;20495;-93
2022/10/22 06:58:06;;;;;;;6.22;3.75;;;;;;;14.32;60.09;102375.03;5011318;28;20113;-91
2022/10/22 07:00:38;;;;;;;7.93;3.55;;;;;;;14.37;59.82;102379.78;5011703;28;20487;-88
2022/10/22 07:03:05;;;;;;;5.57;3.47;;;;;;;14.31;60.17;102373.19;5009715;28;20110;-87
2022/10/22 07:05:33;;;;;;;5.70;3.35;;;;;;;14.34;59.99;102376.94;5015116;28;20080;-90
2022/10/22 07:07:59;;;;;;;4.20;3.33;;;;;;;14.29;60.23;102365.22;5012110;28;20060;-90
2022/10/22 07:10:25;;;;;;;5.10;3.20;;;;;;;14.34;60.09;102382.19;5017595;28;20026;-90
2022/10/22 07:12:50;;;;;;;5.28;2.90;;;;;;;14.18;60.08;102361.91;5008044;28;20043;-90
2022/10/22 07:15:16;;;;;;;7.28;3.45;;;;;;;14.32;59.90;102378.56;5011854;28;20088;-89
2022/10/22 07:17:50;;;;;;;4.75;3.55;;;;;;;14.33;59.92;102376.81;5008286;28;20022;-89
2022/10/22 07:20:21;;;;;;;5.00;3.25;;;;;;;14.35;59.95;102376.13;5012271;28;20037;-90
2022/10/22 07:22:47;;;;;;;4.22;2.85;;;;;;;14.29;60.03;102365.22;5011361;28;20025;-91
2022/10/22 07:25:15;;;;;;;4.15;2.95;;;;;;;14.36;59.93;102367.44;5011635;28;20506;-90
2022/10/22 07:27:42;;;;;;;5.00;2.90;;;;;;;14.30;60.00;102358.25;5010640;28;20030;-91
2022/10/22 07:30:08;;;;;;;6.20;3.15;;;;;;;14.29;59.95;102361.66;5023038;28;20038;-90
2022/10/22 07:32:35;;;;;;;5.00;2.92;;;;;;;14.31;60.10;102363.59;4993762;28;20053;-91
2022/10/22 07:35:04;;;;;;;6.65;3.33;;;;;;;14.27;60.20;102351.09;5007213;28;20042;-88
2022/10/22 07:37:29;;;;;;;5.13;3.10;;;;;;;14.26;60.26;102357.13;4992750;28;20095;-87
2022/10/22 07:39:55;;;;;;;4.25;2.92;;;;;;;14.34;60.11;102355.00;5011122;28;20034;-91
2022/10/22 07:42:20;;;;;;;3.97;2.80;;;;;;;14.32;60.27;102362.78;5011769;28;20022;-89
2022/10/22 07:44:47;;;;;;;5.65;3.08;;;;;;;14.28;60.46;102357.25;5014793;28;20026;-89
2022/10/22 07:47:14;;;;;;;4.95;2.85;;;;;;;14.32;60.26;102354.00;5015882;28;20030;-89
2022/10/22 07:49:40;;;;;;;3.45;2.72;;;;;;;14.30;60.20;102353.88;5015267;28;20093;-89
2022/10/22 07:52:07;;;;;;;4.93;2.90;;;;;;;14.29;60.37;102351.16;5015774;28;20495;-88
2022/10/22 07:54:32;;;;;;;5.95;3.50;;;;;;;14.19;60.06;102333.91;5009681;28;20156;-89
2022/10/22 07:56:59;;;;;;;4.15;2.70;;;;;;;14.38;60.20;102357.03;5011669;28;20034;-89
2022/10/22 07:59:25;;;;;;;4.70;2.88;;;;;;;14.36;60.11;102351.66;5016111;28;20512;-88
2022/10/22 08:01:51;;;;;;;3.40;2.58;;;;;;;14.32;60.17;102344.38;5003501;28;20030;-88
2022/10/22 08:04:17;;;;;;;3.53;2.88;;;;;;;14.34;60.25;102342.75;5014932;28;20114;-89
2022/10/22 08:06:43;;;;;;;3.85;2.75;;;;;;;14.26;60.55;102333.47;5014785;28;20026;-88
2022/10/22 08:09:10;;;;;;;3.22;2.65;;;;;;;14.22;60.52;102341.97;5015448;28;20030;-89
2022/10/22 08:11:35;;;;;;;3.85;2.92;;;;;;;14.28;60.60;102346.72;5009858;28;20030;-90
2022/10/22 08:14:06;;;;;;;3.53;2.80;;;;;;;14.11;60.48;102324.63;5015261;28;20049;-92
2022/10/22 08:16:31;;;;;;;4.07;2.67;;;;;;;14.33;60.50;102345.28;4995376;28;20204;-91
2022/10/22 08:19:06;;;;;;;4.03;2.70;;;;;;;14.23;60.34;102328.94;5014015;28;20495;-91
2022/10/22 08:21:58;;;;;;;3.55;2.47;;;;;;;14.37;60.23;102342.03;4989604;28;20030;-93
2022/10/22 08:24:25;;;;;;;3.85;2.70;;;;;;;14.24;60.07;102316.69;5011969;28;20096;-92
2022/10/22 08:27:03;;;;;;;4.22;2.90;;;;;;;14.35;60.43;102336.72;5006847;28;20034;-91
2022/10/22 08:29:28;;;;;;;4.10;2.50;;;;;;;14.35;60.54;102334.09;5011668;28;20066;-91
2022/10/22 08:32:01;;;;;;;3.20;2.45;;;;;;;14.33;60.55;102327.81;5012751;28;20055;-90
2022/10/22 08:34:34;;;;;;;4.03;3.03;;;;;;;14.29;60.68;102328.44;5014137;28;20041;-92
2022/10/22 08:37:01;;;;;;;3.03;2.38;;;;;;;14.33;60.78;102335.72;5007879;28;20584;-91
2022/10/22 08:39:26;;;;;;;4.13;2.80;;;;;;;14.36;60.18;102338.50;5015898;28;20406;-92
2022/10/22 08:42:36;;;;;;;5.05;2.90;;;;;;;14.32;60.57;102336.50;4994799;28;20026;-90
2022/10/22 08:45:21;;;;;;;4.05;2.90;;;;;;;14.37;60.49;102321.97;4955710;29;20129;-91
2022/10/22 08:48:17;;;;;;;4.20;2.28;;;;;;;14.31;60.71;102318.00;5014177;28;20046;-91
2022/10/22 08:50:48;;;;;;;3.67;2.53;;;;;;;14.33;60.69;102317.31;5013063;28;20123;-91
2022/10/22 08:53:52;;;;;;;4.28;2.50;;;;;;;14.32;60.71;102311.94;5006802;28;20022;-91
2022/10/22 08:56:23;;;;;;;3.63;2.47;;;;;;;14.34;60.42;102294.56;5025118;28;20518;-90
2022/10/22 08:58:56;;;;;;;4.65;2.60;;;;;;;14.40;60.44;102306.38;5011769;28;20049;-90
2022/10/22 09:01:31;;;;;;;3.63;2.70;;;;;;;14.33;60.59;102305.88;5018757;28;20038;-90
2022/10/22 09:04:06;;;;;;;4.73;2.50;;;;;;;14.36;60.61;102304.34;5010807;28;20450;-88
2022/10/22 09:06:32;;;;;;;4.50;2.42;;;;;;;14.30;60.63;102280.31;5009809;28;20033;-86
2022/10/22 09:08:59;;;;;;;4.22;2.58;;;;;;;14.38;60.44;102289.59;5013271;28;20025;-86
2022/10/22 09:11:31;;;;;;;5.50;2.60;;;;;;;14.38;60.98;102299.19;5007605;28;20153;-88
2022/10/22 09:13:58;;;;;;;2.90;2.50;;;;;;;14.37;60.76;102290.41;5012465;28;20419;-88
2022/10/22 09:16:33;;;;;;;4.55;2.72;;;;;;;14.42;60.70;102299.47;5009699;28;20026;-88
2022/10/22 09:19:17;;;;;;;3.28;2.30;;;;;;;14.37;60.96;102293.03;5012272;28;20021;-88
2022/10/22 09:21:57;;;;;;;2.90;2.20;;;;;;;14.36;60.71;102288.59;5010980;28;20029;-88
2022/10/22 09:24:39;;;;;;;4.18;2.50;;;;;;;14.38;60.84;102292.22;5013576;28;20030;-90
2022/10/22 09:27:20;;;;;;;2.40;2.20;;;;;;;14.37;61.06;102287.78;5013523;28;20049;-92
2022/10/22 09:29:55;;;;;;;3.95;2.53;;;;;;;14.36;61.11;102277.16;5006871;28;20109;-92
2022/10/22 09:32:32;;;;;;;3.15;2.42;;;;;;;14.34;60.99;102269.19;5014395;28;20021;-93
2022/10/22 09:35:10;;;;;;;2.50;2.30;;;;;;;14.41;60.90;102274.03;5013454;28;20108;-93
2022/10/22 09:37:47;;;;;;;3.33;2.63;;;;;;;14.40;61.08;102281.81;5010047;28;20106;-92
2022/10/22 09:40:14;;;;;;;3.47;2.42;;;;;;;14.38;61.04;102275.53;4993417;28;20087;-92
2022/10/22 09:42:43;;;;;;;2.53;2.15;;;;;;;14.36;60.87;102262.31;5011304;28;20024;-92
2022/10/22 09:45:23;;;;;;;4.72;2.50;;;;;;;14.40;60.98;102263.41;5006218;28;20034;-90
2022/10/22 09:48:09;;;;;;;3.45;2.45;;;;;;;14.45;60.85;102265.50;4996684;28;20034;-91
2022/10/22 09:50:40;;;;;;;3.85;2.58;;;;;;;14.50;60.85;102263.19;5014550;28;20041;-88
2022/10/22 09:53:25;;;;;;;3.20;2.20;;;;;;;14.43;60.99;102260.97;5010190;28;20029;-86
2022/10/22 09:56:24;;;;;;;3.83;2.53;;;;;;;14.37;61.34;102250.06;5008693;28;20018;-93
2022/10/22 09:59:16;;;;;;;4.20;2.65;;;;;;;14.32;61.43;102243.63;5012969;28;20036;-91
2022/10/22 10:01:58;;;;;;;3.42;2.53;;;;;;;14.40;61.39;102242.38;5015691;28;20033;-92
2022/10/22 10:05:04;;;;;;;4.13;2.83;;;;;;;14.37;61.38;102240.47;5013697;28;20841;-91
2022/10/22 10:08:02;;;;;;;3.97;2.40;;;;;;;14.34;61.69;102244.63;5012767;28;20034;-93
2022/10/22 10:10:33;;;;;;;3.20;2.38;;;;;;;14.33;61.53;102238.47;5006968;28;20064;-92
2022/10/22 10:13:13;;;;;;;3.25;2.30;;;;;;;14.30;61.72;102222.50;5008680;28;20064;-92
2022/10/22 10:19:25;;;;;;;2.78;2.40;;;;;;;14.14;61.10;102170.72;5000084;28;20559;-93
2022/10/22 10:21:56;;;;;;;3.15;2.30;;;;;;;14.41;61.36;102212.63;5005233;28;20057;-91
2022/10/22 10:24:41;;;;;;;4.15;2.65;;;;;;;14.38;61.56;102200.22;5024602;28;20112;-92
2022/10/22 10:27:47;;;;;;;3.22;2.20;;;;;;;14.37;61.66;102187.91;4993613;28;20030;-92
2022/10/22 10:30:20;;;;;;;3.30;2.58;;;;;;;14.38;61.63;102183.56;5007515;28;20076;-91
2022/10/22 10:33:15;;;;;;;4.25;2.58;;;;;;;14.46;61.45;102177.94;4994851;28;20038;-93
2022/10/22 10:36:16;;;;;;;3.15;2.40;;;;;;;14.32;61.76;102160.44;5017373;28;20021;-84
2022/10/22 10:39:06;;;;;;;5.57;2.65;;;;;;;14.45;61.48;102175.22;4997312;28;20025;-91
2022/10/22 10:41:59;;;;;;;4.15;2.33;;;;;;;14.45;61.47;102173.50;5026533;28;20120;-93
2022/10/22 10:44:36;;;;;;;3.00;2.28;;;;;;;14.06;61.46;102106.31;5031837;28;20030;-94
2022/10/22 10:47:25;;;;;;;2.83;2.50;;;;;;;14.44;61.56;102162.91;5026593;28;20037;-88
2022/10/22 10:50:04;;;;;;;3.20;2.35;;;;;;;14.37;61.77;102164.25;4995256;28;20026;-92
2022/10/22 10:52:43;;;;;;;3.13;2.20;;;;;;;14.42;61.68;102161.91;4996001;28;20625;-89
2022/10/22 10:55:29;;;;;;;2.97;2.40;;;;;;;14.33;61.97;102150.81;5015638;28;20117;-90
2022/10/22 10:58:31;;;;;;;2.67;2.20;;;;;;;14.43;61.64;102153.19;5000336;28;20033;-91
2022/10/22 11:01:12;;;;;;;3.78;2.30;;;;;;;14.55;61.46;102150.41;5011901;28;20042;-91
2022/10/22 11:04:01;;;;;;;2.72;2.20;;;;;;;14.43;61.87;102143.63;5012098;28;20037;-90
2022/10/22 11:06:28;;;;;;;3.88;2.40;;;;;;;14.35;61.88;102139.59;5042849;28;20033;-89
2022/10/22 11:09:25;;;;;;;3.75;2.40;;;;;;;14.41;61.91;102137.34;5011704;28;20084;-89
2022/10/22 11:12:03;;;;;;;3.20;2.40;;;;;;;14.46;61.71;102132.38;4974303;28;20045;-91
2022/10/22 11:14:52;;;;;;;3.40;2.35;;;;;;;14.42;61.75;102122.47;5010492;28;20038;-89
2022/10/22 11:17:22;;;;;;;3.60;2.30;;;;;;;14.37;61.64;102111.69;4998474;28;20462;-91
2022/10/22 11:19:55;;;;;;;3.15;2.40;;;;;;;14.48;61.57;102112.34;5013411;28;20053;-90
2022/10/22 11:22:32;;;;;;;3.42;2.40;;;;;;;14.42;62.08;102106.72;5012122;28;20030;-90
2022/10/22 11:25:21;;;;;;;7.50;2.42;;;;;;;14.36;61.88;102082.69;4998542;28;20103;-89
2022/10/22 11:27:55;;;;;;;3.55;2.10;;;;;;;14.31;61.80;102071.91;4998790;28;20117;-92
2022/10/22 11:30:33;;;;;;;2.95;2.20;;;;;;;14.53;61.54;102083.69;5011048;28;20168;-91
2022/10/22 11:33:03;;;;;;;5.55;2.47;;;;;;;14.43;62.13;102084.84;5011895;28;20026;-91
2022/10/22 11:35:39;;;;;;;3.75;2.75;;;;;;;14.23;62.42;102050.41;5012658;28;20026;-89
2022/10/22 11:38:06;;;;;;;2.58;2.38;;;;;;;14.25;62.05;102043.53;5014751;28;20030;-89
2022/10/22 11:40:53;;;;;;;3.53;2.40;;;;;;;14.32;62.35;102054.41;5012438;28;20476;-89
2022/10/22 11:43:51;;;;;;;3.40;2.35;;;;;;;14.40;62.19;102071.56;5008352;28;20025;-89
2022/10/22 11:46:19;;;;;;;3.47;2.55;;;;;;;14.38;62.24;102065.28;5011074;28;20030;-90
2022/10/22 11:49:18;;;;;;;2.92;2.50;;;;;;;14.46;62.01;102058.78;5006593;28;20030;-87
2022/10/22 11:51:46;;;;;;;3.22;2.20;;;;;;;14.40;62.19;102056.69;5003797;28;20029;-89
2022/10/22 11:54:32;;;;;;;3.50;2.30;;;;;;;14.41;62.27;102057.56;5010237;28;20091;-90
2022/10/22 11:57:39;;;;;;;2.55;2.25;;;;;;;14.40;62.25;102061.94;5011368;28;20520;-90
2022/10/22 12:00:30;;;;;;;2.88;2.38;;;;;;;14.43;62.32;102048.06;5014530;28;20034;-89
2022/10/22 12:03:17;;;;;;;3.20;2.38;;;;;;;14.50;62.14;102044.06;5020333;28;20018;-91
2022/10/22 12:05:44;;;;;;;3.22;2.63;;;;;;;14.54;62.16;102049.63;5011660;28;20053;-89
2022/10/22 12:08:17;;;;;;;3.30;2.40;;;;;;;14.52;62.07;102034.53;5011457;28;20026;-89
2022/10/22 12:11:03;;;;;;;2.67;2.13;;;;;;;14.48;61.78;102022.97;5010287;28;20038;-90
2022/10/22 12:13:51;;;;;;;6.13;2.47;;;;;;;14.50;62.27;102034.47;5001369;28;20496;-89
2022/10/22 12:16:23;;;;;;;3.67;2.40;;;;;;;14.56;62.25;102036.56;5005992;28;20395;-91
2022/10/22 12:19:24;;;;;;;3.17;2.42;;;;;;;14.59;62.04;102021.00;5010884;28;20022;-91